sensor_id;sensor_type;location;lat;lon;timestamp;P1;durP1;ratioP1;P2;durP2;ratioP2
57291;SDS011;43144;50.972;18.220;2023-04-03T00:04:07;8.40;;;4.30;;
57291;SDS011;43144;50.972;18.220;2023-04-03T00:13:56;2.50;;;2.30;;
57291;SDS011;43144;50.972;18.220;2023-04-03T00:23:46;7.80;;;5.10;;
57291;SDS011;43144;50.972;18.220;2023-04-03T00:31:08;5.90;;;5.00;;
57291;SDS011;43144;50.972;18.220;2023-04-03T00:41:02;3.60;;;3.30;;
57291;SDS011;43144;50.972;18.220;2023-04-03T00:50:54;4.40;;;3.40;;
57291;SDS011;43144;50.972;18.220;2023-04-03T01:00:46;9.70;;;4.50;;
57291;SDS011;43144;50.972;18.220;2023-04-03T01:10:38;6.90;;;4.10;;
57291;SDS011;43144;50.972;18.220;2023-04-03T01:28:33;6.70;;;4.80;;
57291;SDS011;43144;50.972;18.220;2023-04-03T01:38:26;8.70;;;3.30;;
57291;SDS011;43144;50.972;18.220;2023-04-03T01:48:16;5.90;;;5.30;;
57291;SDS011;43144;50.972;18.220;2023-04-03T02:05:26;7.00;;;5.00;;
57291;SDS011;43144;50.972;18.220;2023-04-03T02:15:15;6.00;;;5.50;;
57291;SDS011;43144;50.972;18.220;2023-04-03T02:25:05;14.00;;;4.80;;
57291;SDS011;43144;50.972;18.220;2023-04-03T02:34:54;5.60;;;5.10;;
57291;SDS011;43144;50.972;18.220;2023-04-03T02:44:44;5.90;;;5.40;;
57291;SDS011;43144;50.972;18.220;2023-04-03T02:54:33;13.90;;;6.90;;
57291;SDS011;43144;50.972;18.220;2023-04-03T03:04:22;7.00;;;5.80;;
57291;SDS011;43144;50.972;18.220;2023-04-03T03:14:11;4.00;;;3.80;;
57291;SDS011;43144;50.972;18.220;2023-04-03T03:24:01;6.40;;;6.00;;
57291;SDS011;43144;50.972;18.220;2023-04-03T03:33:50;7.40;;;6.90;;
57291;SDS011;43144;50.972;18.220;2023-04-03T03:43:39;18.80;;;12.10;;
57291;SDS011;43144;50.972;18.220;2023-04-03T03:53:28;13.80;;;8.00;;
57291;SDS011;43144;50.972;18.220;2023-04-03T04:03:18;8.90;;;8.00;;
57291;SDS011;43144;50.972;18.220;2023-04-03T04:13:08;8.50;;;6.40;;
57291;SDS011;43144;50.972;18.220;2023-04-03T04:22:57;14.60;;;7.80;;
57291;SDS011;43144;50.972;18.220;2023-04-03T04:32:47;8.20;;;7.50;;
57291;SDS011;43144;50.972;18.220;2023-04-03T04:42:36;9.30;;;8.30;;
57291;SDS011;43144;50.972;18.220;2023-04-03T04:52:27;9.00;;;7.80;;
57291;SDS011;43144;50.972;18.220;2023-04-03T05:02:16;18.80;;;9.30;;
57291;SDS011;43144;50.972;18.220;2023-04-03T05:12:06;7.40;;;5.10;;
57291;SDS011;43144;50.972;18.220;2023-04-03T05:21:55;9.40;;;7.70;;
57291;SDS011;43144;50.972;18.220;2023-04-03T05:31:45;11.20;;;8.30;;
57291;SDS011;43144;50.972;18.220;2023-04-03T05:41:35;8.40;;;7.60;;
57291;SDS011;43144;50.972;18.220;2023-04-03T05:51:24;18.90;;;8.70;;
57291;SDS011;43144;50.972;18.220;2023-04-03T06:01:17;17.90;;;6.80;;
57291;SDS011;43144;50.972;18.220;2023-04-03T06:11:08;8.10;;;6.60;;
57291;SDS011;43144;50.972;18.220;2023-04-03T06:20:58;9.60;;;6.40;;
57291;SDS011;43144;50.972;18.220;2023-04-03T06:30:48;6.20;;;5.60;;
57291;SDS011;43144;50.972;18.220;2023-04-03T06:40:38;5.90;;;5.30;;
57291;SDS011;43144;50.972;18.220;2023-04-03T06:50:27;5.50;;;4.40;;
57291;SDS011;43144;50.972;18.220;2023-04-03T06:52:56;7.90;;;6.30;;
57291;SDS011;43144;50.972;18.220;2023-04-03T07:02:47;5.40;;;4.50;;
57291;SDS011;43144;50.972;18.220;2023-04-03T07:12:36;7.70;;;5.70;;
57291;SDS011;43144;50.972;18.220;2023-04-03T07:22:27;7.20;;;4.20;;
57291;SDS011;43144;50.972;18.220;2023-04-03T07:32:16;4.50;;;3.90;;
57291;SDS011;43144;50.972;18.220;2023-04-03T07:42:06;5.00;;;4.20;;
57291;SDS011;43144;50.972;18.220;2023-04-03T07:51:56;9.70;;;4.30;;
57291;SDS011;43144;50.972;18.220;2023-04-03T08:01:45;3.70;;;3.40;;
57291;SDS011;43144;50.972;18.220;2023-04-03T08:11:40;8.20;;;3.30;;
57291;SDS011;43144;50.972;18.220;2023-04-03T08:21:31;5.10;;;2.70;;
57291;SDS011;43144;50.972;18.220;2023-04-03T08:38:45;3.20;;;2.40;;
57291;SDS011;43144;50.972;18.220;2023-04-03T08:48:41;1.70;;;1.50;;
57291;SDS011;43144;50.972;18.220;2023-04-03T08:58:35;1.50;;;1.40;;
57291;SDS011;43144;50.972;18.220;2023-04-03T09:08:39;46.30;;;6.20;;
57291;SDS011;43144;50.972;18.220;2023-04-03T09:18:42;14.30;;;3.60;;
57291;SDS011;43144;50.972;18.220;2023-04-03T09:28:37;2.50;;;1.80;;
57291;SDS011;43144;50.972;18.220;2023-04-03T09:38:31;12.70;;;3.20;;
57291;SDS011;43144;50.972;18.220;2023-04-03T09:48:42;7.80;;;7.30;;
57291;SDS011;43144;50.972;18.220;2023-04-03T09:58:47;2.30;;;2.10;;
57291;SDS011;43144;50.972;18.220;2023-04-03T10:08:59;4.70;;;4.00;;
57291;SDS011;43144;50.972;18.220;2023-04-03T10:18:56;2.80;;;2.40;;
57291;SDS011;43144;50.972;18.220;2023-04-03T10:29:01;2.30;;;2.10;;
57291;SDS011;43144;50.972;18.220;2023-04-03T10:39:01;1.60;;;1.50;;
57291;SDS011;43144;50.972;18.220;2023-04-03T10:49:05;4.10;;;3.90;;
57291;SDS011;43144;50.972;18.220;2023-04-03T10:59:12;5.20;;;2.90;;
57291;SDS011;43144;50.972;18.220;2023-04-03T11:09:10;1.50;;;1.20;;
57291;SDS011;43144;50.972;18.220;2023-04-03T11:19:10;6.00;;;5.60;;
57291;SDS011;43144;50.972;18.220;2023-04-03T11:29:22;4.20;;;3.90;;
57291;SDS011;43144;50.972;18.220;2023-04-03T11:41:33;11.00;;;2.80;;
57291;SDS011;43144;50.972;18.220;2023-04-03T12:28:59;2.70;;;1.80;;
57291;SDS011;43144;50.972;18.220;2023-04-03T12:39:14;1.70;;;1.60;;
57291;SDS011;43144;50.972;18.220;2023-04-03T12:49:33;3.00;;;2.50;;
57291;SDS011;43144;50.972;18.220;2023-04-03T12:59:37;3.00;;;2.00;;
57291;SDS011;43144;50.972;18.220;2023-04-03T13:09:32;1.10;;;0.60;;
57291;SDS011;43144;50.972;18.220;2023-04-03T14:05:21;3.10;;;2.90;;
57291;SDS011;43144;50.972;18.220;2023-04-03T14:15:16;6.70;;;6.30;;
57291;SDS011;43144;50.972;18.220;2023-04-03T14:32:33;2.30;;;1.70;;
57291;SDS011;43144;50.972;18.220;2023-04-03T14:42:24;3.90;;;3.50;;
57291;SDS011;43144;50.972;18.220;2023-04-03T14:52:19;2.20;;;2.00;;
57291;SDS011;43144;50.972;18.220;2023-04-03T15:02:24;1.00;;;1.00;;
57291;SDS011;43144;50.972;18.220;2023-04-03T15:19:37;6.20;;;3.10;;
57291;SDS011;43144;50.972;18.220;2023-04-03T15:29:28;10.40;;;3.60;;
57291;SDS011;43144;50.972;18.220;2023-04-03T15:39:17;4.00;;;1.90;;
57291;SDS011;43144;50.972;18.220;2023-04-03T15:49:07;3.00;;;2.40;;
57291;SDS011;43144;50.972;18.220;2023-04-03T15:58:56;2.90;;;2.70;;
57291;SDS011;43144;50.972;18.220;2023-04-03T16:16:08;4.40;;;2.90;;
57291;SDS011;43144;50.972;18.220;2023-04-03T16:25:58;4.00;;;3.60;;
57291;SDS011;43144;50.972;18.220;2023-04-03T16:43:08;4.00;;;3.60;;
57291;SDS011;43144;50.972;18.220;2023-04-03T16:52:59;5.10;;;4.70;;
57291;SDS011;43144;50.972;18.220;2023-04-03T17:02:48;2.90;;;2.70;;
57291;SDS011;43144;50.972;18.220;2023-04-03T17:10:11;8.30;;;7.30;;
57291;SDS011;43144;50.972;18.220;2023-04-03T17:27:23;8.20;;;4.80;;
57291;SDS011;43144;50.972;18.220;2023-04-03T17:37:13;11.80;;;9.50;;
57291;SDS011;43144;50.972;18.220;2023-04-03T17:47:02;8.10;;;5.40;;
57291;SDS011;43144;50.972;18.220;2023-04-03T17:56:52;3.50;;;3.20;;
57291;SDS011;43144;50.972;18.220;2023-04-03T18:06:41;10.20;;;4.40;;
57291;SDS011;43144;50.972;18.220;2023-04-03T18:31:16;8.70;;;7.80;;
57291;SDS011;43144;50.972;18.220;2023-04-03T18:41:09;4.40;;;3.70;;
57291;SDS011;43144;50.972;18.220;2023-04-03T18:51:00;9.90;;;8.90;;
57291;SDS011;43144;50.972;18.220;2023-04-03T19:15:31;10.90;;;9.90;;
57291;SDS011;43144;50.972;18.220;2023-04-03T19:25:21;10.10;;;9.30;;
57291;SDS011;43144;50.972;18.220;2023-04-03T19:49:52;11.80;;;9.00;;
57291;SDS011;43144;50.972;18.220;2023-04-03T19:59:42;10.10;;;7.00;;
57291;SDS011;43144;50.972;18.220;2023-04-03T20:09:32;8.70;;;6.80;;
57291;SDS011;43144;50.972;18.220;2023-04-03T20:19:21;7.40;;;6.70;;
57291;SDS011;43144;50.972;18.220;2023-04-03T20:29:11;7.20;;;6.70;;
57291;SDS011;43144;50.972;18.220;2023-04-03T20:39:01;11.70;;;5.80;;
57291;SDS011;43144;50.972;18.220;2023-04-03T20:48:50;7.10;;;6.40;;
57291;SDS011;43144;50.972;18.220;2023-04-03T20:58:40;6.30;;;5.80;;
57291;SDS011;43144;50.972;18.220;2023-04-03T21:19:50;5.80;;;5.20;;
57291;SDS011;43144;50.972;18.220;2023-04-03T21:27:12;6.20;;;5.60;;
57291;SDS011;43144;50.972;18.220;2023-04-03T21:37:02;6.90;;;6.20;;
57291;SDS011;43144;50.972;18.220;2023-04-03T21:54:13;6.50;;;5.90;;
57291;SDS011;43144;50.972;18.220;2023-04-03T22:04:03;8.40;;;7.60;;
57291;SDS011;43144;50.972;18.220;2023-04-03T22:13:53;7.50;;;6.80;;
57291;SDS011;43144;50.972;18.220;2023-04-03T22:23:42;14.40;;;8.10;;
57291;SDS011;43144;50.972;18.220;2023-04-03T22:33:33;5.40;;;4.90;;
57291;SDS011;43144;50.972;18.220;2023-04-03T22:43:23;23.20;;;10.40;;
57291;SDS011;43144;50.972;18.220;2023-04-03T22:53:13;10.10;;;8.20;;
57291;SDS011;43144;50.972;18.220;2023-04-03T23:03:02;12.30;;;11.20;;
57291;SDS011;43144;50.972;18.220;2023-04-03T23:12:52;11.90;;;11.00;;
57291;SDS011;43144;50.972;18.220;2023-04-03T23:22:42;10.60;;;9.80;;
57291;SDS011;43144;50.972;18.220;2023-04-03T23:32:33;11.50;;;10.30;;
57291;SDS011;43144;50.972;18.220;2023-04-03T23:42:23;12.80;;;11.10;;
57291;SDS011;43144;50.972;18.220;2023-04-03T23:52:12;11.10;;;10.20;;
